Airfield :
LOGIN :

Register | Disclaimer

   EN    FR    IT 

 










Legend :    VFR   Marginal VFR   IFR   Intensive IFR   Very Intensive IFR
Visi :
Ceiling :
>= 8 km
>= 3000ft
5 to 8 km
1000 to 3000 ft
1500m to 5 km
500 to 1000 ft
800 to 1500m
200 to 500 ft
< 800m
< 200 ft
Symbols :   Thunderstorms  Fog  Heavy snow  Heavy precipitations  Wind > 20 kt
SIGMETs :     Misc.  Thunderstorms  Icing  Turbulence  Mountain Waves  Volcanic Ashes






- Airport Elevation : 909 ft
- IATA code : KSF


EDVK - Kassel Calden

CURRENT METAR :
  • 290750Z 27008KT 9999 SCT017 BKN038 10/06 Q1013

EXPIRED METARs :
  • 290720Z 29008KT 250V310 9999 SCT016 BKN021 10/06 Q1013
  • 290650Z 27008KT 9999 FEW013 BKN035 09/05 Q1013
  • 290620Z 26008KT 9999 SCT014 BKN021 09/06 Q1014
  • 290550Z 26007KT 9999 FEW014 BKN033 08/05 Q1014
  • 290520Z 26007KT 9999 FEW015 BKN034 08/05 Q1014

TAF TAF EDVK
Valid from the 29 at 06:00 until the 29 at 15:00 UTC


290500Z 2906/2915 29007KT 9999 FEW014 BKN030
PROB40
TEMPO 2907/2915 SHRA BKN014TCU



MET'MAP, your aeronautical weather chart ! - Copyright ORBIFLY December 2007 - Disclaimer

ORBIFLY MET'MAP TEAM :

Programming & Development : Alexandra Zaïnal
Original concept : Baudouin d'Aumeries
Technical & hardware support : Manuel Goepfert
Assistance : Marc-Olivier Méhu

Contact : metmap@orbifly.com




SOURCES & CREDITS :

   NOAA